Time;durP1;ratioP1;P1;durP2;ratioP2;P2;SDS_P1;SDS_P2;PMS_P1;PMS_P2;Temp;Humidity;BMP_temperature;BMP_pressure;BME280_temperature;BME280_humidity;BME280_pressure;Samples;Min_cycle;Max_cycle;Signal;HPM_P1;HPM_P2
2021/06/27 00:01:08;;;;;;;;;;;;;;;-144.31;100.00;73930.16;5021781;28;20007;-76
2021/06/27 00:03:33;;;;;;;;;;;;;;;-144.31;100.00;73926.16;5020756;28;20008;-76
2021/06/27 00:06:01;;;;;;;;;;;;;;;-144.31;100.00;73966.09;5010198;28;20019;-77
2021/06/27 00:08:26;;;;;;;;;;;;;;;-144.31;100.00;73992.03;5009793;28;19931;-77
2021/06/27 00:10:56;;;;;;;;;;;;;;;-144.31;100.00;73978.06;5019481;28;19921;-76
2021/06/27 00:13:22;;;;;;;;;;;;;;;-144.31;100.00;73974.06;5038046;28;20383;-76
2021/06/27 00:15:49;;;;;;;;;;;;;;;-144.31;100.00;74000.03;5009215;28;19975;-76
2021/06/27 00:18:16;;;;;;;;;;;;;;;-144.31;100.00;74014.00;5021051;28;19917;-76
2021/06/27 00:20:43;;;;;;;;;;;;;;;-144.31;100.00;74018.00;5021962;28;19928;-76
2021/06/27 00:23:09;;;;;;;;;;;;;;;-144.31;100.00;74049.94;5024927;28;19921;-76
2021/06/27 00:25:35;;;;;;;;;;;;;;;-144.31;100.00;74031.97;5019603;28;19928;-76
2021/06/27 00:28:03;;;;;;;;;;;;;;;-144.31;100.00;74004.03;5019860;28;19940;-76
2021/06/27 00:30:32;;;;;;;;;;;;;;;-144.31;100.00;74027.97;5022435;28;19927;-76
2021/06/27 00:32:58;;;;;;;;;;;;;;;-144.31;100.00;74045.94;5020099;28;19917;-77
2021/06/27 00:35:26;;;;;;;;;;;;;;;-144.31;100.00;74059.94;5030998;28;19923;-77
2021/06/27 00:37:52;;;;;;;;;;;;;;;-144.31;100.00;74083.88;5020192;28;19967;-77
2021/06/27 00:40:23;;;;;;;;;;;;;;;-144.31;100.00;74121.81;5022360;28;19925;-77
2021/06/27 00:42:49;;;;;;;;;;;;;;;-144.31;100.00;74155.75;5019332;28;20009;-77
2021/06/27 00:45:15;;;;;;;;;;;;;;;-144.31;100.00;74149.78;5021536;28;20019;-77
2021/06/27 00:47:41;;;;;;;;;;;;;;;-144.31;100.00;74171.72;5021885;28;19925;-76
2021/06/27 00:50:08;;;;;;;;;;;;;;;-144.31;100.00;74149.78;5021432;28;19924;-76
2021/06/27 00:52:34;;;;;;;;;;;;;;;-144.31;100.00;74177.72;5035399;28;19998;-76
2021/06/27 00:54:59;;;;;;;;;;;;;;;-144.31;100.00;74189.69;5023148;28;20000;-76
2021/06/27 00:57:25;;;;;;;;;;;;;;;-144.31;100.00;74201.69;5025373;28;19983;-76
2021/06/27 00:59:50;;;;;;;;;;;;;;;-144.31;100.00;74177.72;5019704;28;19983;-76
2021/06/27 01:02:16;;;;;;;;;;;;;;;-144.31;100.00;74199.69;5049217;28;19921;-76
2021/06/27 01:04:41;;;;;;;;;;;;;;;-144.31;100.00;74203.69;5014110;28;19921;-76
2021/06/27 01:07:07;;;;;;;;;;;;;;;-144.31;100.00;74187.72;5023228;28;19972;-76
2021/06/27 01:09:34;;;;;;;;;;;;;;;-144.31;100.00;74197.69;5026440;28;19921;-75
2021/06/27 01:12:03;;;;;;;;;;;;;;;-144.31;100.00;74211.66;5024750;28;19953;-76
2021/06/27 01:14:30;;;;;;;;;;;;;;;-144.31;100.00;74229.63;5021122;28;19925;-76
2021/06/27 01:16:56;;;;;;;;;;;;;;;-144.31;100.00;74239.63;5021722;28;19921;-77
2021/06/27 01:19:21;;;;;;;;;;;;;;;-144.31;100.00;74243.63;5022360;28;19929;-76
2021/06/27 01:21:50;;;;;;;;;;;;;;;-144.31;100.00;74253.59;5022862;28;19925;-75
2021/06/27 01:24:15;;;;;;;;;;;;;;;-144.31;100.00;74253.59;5023231;28;19917;-75
2021/06/27 01:26:41;;;;;;;;;;;;;;;-144.31;100.00;74249.59;5020490;28;20276;-76
2021/06/27 01:29:06;;;;;;;;;;;;;;;-144.31;100.00;74273.56;5021765;28;19921;-77
2021/06/27 01:31:35;;;;;;;;;;;;;;;-144.31;100.00;74261.59;5022281;28;19928;-77
2021/06/27 01:34:03;;;;;;;;;;;;;;;-144.31;100.00;74251.59;5019691;28;19917;-77
2021/06/27 01:36:28;;;;;;;;;;;;;;;-144.31;100.00;74257.59;5038332;28;19921;-76
2021/06/27 01:38:54;;;;;;;;;;;;;;;-144.31;100.00;74275.56;5027280;28;19924;-76
2021/06/27 01:41:19;;;;;;;;;;;;;;;-144.31;100.00;74285.53;5023121;28;20032;-76
2021/06/27 01:43:44;;;;;;;;;;;;;;;-144.31;100.00;74305.50;5021139;28;19922;-75
2021/06/27 01:46:10;;;;;;;;;;;;;;;-144.31;100.00;74325.47;5027172;28;19953;-77
2021/06/27 01:48:36;;;;;;;;;;;;;;;-144.31;100.00;74349.44;5026818;28;19964;-76
2021/06/27 01:51:06;;;;;;;;;;;;;;;-144.31;100.00;74371.41;5021959;28;19920;-76
2021/06/27 01:53:33;;;;;;;;;;;;;;;-144.31;100.00;74381.38;5019912;28;20391;-76
2021/06/27 01:56:08;;;;;;;;;;;;;;;-144.31;100.00;74391.38;5021781;28;19964;-76
2021/06/27 01:58:33;;;;;;;;;;;;;;;-144.31;100.00;74391.38;5034252;28;19964;-77
2021/06/27 02:00:58;;;;;;;;;;;;;;;-144.31;100.00;74403.34;5022865;28;20536;-76
2021/06/27 02:03:24;;;;;;;;;;;;;;;-144.31;100.00;74415.34;5026813;28;19922;-76
2021/06/27 02:05:51;;;;;;;;;;;;;;;-144.31;100.00;74413.34;5003984;28;19973;-76
2021/06/27 02:08:17;;;;;;;;;;;;;;;-144.31;100.00;74427.31;5017968;28;20367;-76
2021/06/27 02:10:45;;;;;;;;;;;;;;;-144.31;100.00;74435.28;5026512;28;19921;-76
2021/06/27 02:13:15;;;;;;;;;;;;;;;-144.31;100.00;74451.28;5022159;28;20023;-76
2021/06/27 02:15:40;;;;;;;;;;;;;;;-144.31;100.00;74463.25;5018579;28;19925;-76
2021/06/27 02:18:09;;;;;;;;;;;;;;;-144.31;100.00;74469.25;5027572;28;20054;-76
2021/06/27 02:20:34;;;;;;;;;;;;;;;-144.31;100.00;74467.25;5026331;28;19979;-76
2021/06/27 02:22:59;;;;;;;;;;;;;;;-144.31;100.00;74469.25;5022561;28;19921;-76
2021/06/27 02:25:25;;;;;;;;;;;;;;;-144.31;100.00;74471.25;5025520;28;19932;-76
2021/06/27 02:27:53;;;;;;;;;;;;;;;-144.31;100.00;74471.25;5020368;28;19925;-76
2021/06/27 02:30:18;;;;;;;;;;;;;;;-144.31;100.00;74455.25;5028461;28;20299;-76
2021/06/27 02:32:44;;;;;;;;;;;;;;;-144.31;100.00;74451.28;5028943;28;19925;-76
2021/06/27 02:35:10;;;;;;;;;;;;;;;-144.31;100.00;74449.28;5035775;28;19929;-76
2021/06/27 02:37:38;;;;;;;;;;;;;;;-144.31;100.00;74439.28;5020003;28;20551;-76
2021/06/27 02:40:05;;;;;;;;;;;;;;;-144.31;100.00;74439.28;5025476;28;19940;-76
2021/06/27 02:42:33;;;;;;;;;;;;;;;-144.31;100.00;74435.28;5019558;28;19965;-76
2021/06/27 02:44:58;;;;;;;;;;;;;;;-144.31;100.00;74439.28;5027558;28;20010;-76
2021/06/27 02:47:24;;;;;;;;;;;;;;;-144.31;100.00;74433.31;5042818;28;20561;-77
2021/06/27 02:49:49;;;;;;;;;;;;;;;-144.31;100.00;74429.31;5010619;28;20019;-76
2021/06/27 02:52:15;;;;;;;;;;;;;;;-144.31;100.00;74431.31;5053465;28;19921;-76
2021/06/27 02:54:40;;;;;;;;;;;;;;;-144.31;100.00;74429.31;5021314;28;20380;-76
2021/06/27 02:57:05;;;;;;;;;;;;;;;-144.31;100.00;74437.28;5019113;28;19921;-76
2021/06/27 02:59:31;;;;;;;;;;;;;;;-144.31;100.00;74441.28;5021231;28;19929;-77
2021/06/27 03:01:58;;;;;;;;;;;;;;;-144.31;100.00;74443.28;5020095;28;19924;-76
2021/06/27 03:04:24;;;;;;;;;;;;;;;-144.31;100.00;74429.31;5040489;28;19921;-76
2021/06/27 03:06:49;;;;;;;;;;;;;;;-144.31;100.00;74427.31;5018724;28;19921;-76
2021/06/27 03:09:14;;;;;;;;;;;;;;;-144.31;100.00;74421.31;5042120;28;19921;-75
2021/06/27 03:11:40;;;;;;;;;;;;;;;-144.31;100.00;74425.31;5019529;28;19917;-77
2021/06/27 03:14:05;;;;;;;;;;;;;;;-144.31;100.00;74423.31;5051358;28;19978;-76
2021/06/27 03:16:30;;;;;;;;;;;;;;;-144.31;100.00;74423.31;5019572;28;19932;-76
2021/06/27 03:18:56;;;;;;;;;;;;;;;-144.31;100.00;74421.31;5022783;28;19917;-76
2021/06/27 03:21:21;;;;;;;;;;;;;;;-144.31;100.00;74421.31;5024319;28;19921;-76
2021/06/27 03:23:46;;;;;;;;;;;;;;;-144.31;100.00;74429.31;5008159;28;19944;-77
2021/06/27 03:26:12;;;;;;;;;;;;;;;-144.31;100.00;74435.28;5036117;28;20370;-76
2021/06/27 03:28:46;;;;;;;;;;;;;;;-144.31;100.00;74433.31;5009453;28;19975;-76
2021/06/27 03:31:11;;;;;;;;;;;;;;;-144.31;100.00;74433.31;5026258;28;19924;-77
2021/06/27 03:33:36;;;;;;;;;;;;;;;-144.31;100.00;74427.31;5017774;28;19917;-77
2021/06/27 03:36:02;;;;;;;;;;;;;;;-144.31;100.00;74427.31;5020224;28;19956;-76
2021/06/27 03:40:58;;;;;;;;;;;;;;;-144.31;100.00;74415.34;5020301;28;19936;-76
2021/06/27 03:43:23;;;;;;;;;;;;;;;-144.31;100.00;74413.34;5048871;28;19922;-77
2021/06/27 03:45:49;;;;;;;;;;;;;;;-144.31;100.00;74411.34;5020856;28;20113;-77
2021/06/27 03:48:14;;;;;;;;;;;;;;;-144.31;100.00;74403.34;5026883;28;20000;-76
2021/06/27 03:50:40;;;;;;;;;;;;;;;-144.31;100.00;74399.34;5025638;28;19960;-76
2021/06/27 03:53:06;;;;;;;;;;;;;;;-144.31;100.00;74399.34;5035612;28;19921;-77
2021/06/27 03:55:31;;;;;;;;;;;;;;;-144.31;100.00;74395.38;5036060;28;20019;-76
2021/06/27 03:57:57;;;;;;;;;;;;;;;-144.31;100.00;74389.38;5009767;28;19925;-76
2021/06/27 04:00:22;;;;;;;;;;;;;;;-144.31;100.00;74383.38;5008525;28;20295;-77
2021/06/27 04:02:48;;;;;;;;;;;;;;;-144.31;100.00;74367.41;5007562;28;20000;-77
2021/06/27 04:05:14;;;;;;;;;;;;;;;-144.31;100.00;74355.44;4997122;28;19965;-77
2021/06/27 04:07:39;;;;;;;;;;;;;;;-144.31;100.00;74339.44;5026571;28;20346;-76
2021/06/27 04:10:08;;;;;;;;;;;;;;;-144.31;100.00;74337.47;5018920;28;19913;-76
2021/06/27 04:12:33;;;;;;;;;;;;;;;-144.31;100.00;74329.47;5020301;28;19927;-77
2021/06/27 04:14:58;;;;;;;;;;;;;;;-144.31;100.00;74313.50;5023813;28;20310;-77
2021/06/27 04:17:24;;;;;;;;;;;;;;;-144.31;100.00;74297.53;5025518;28;19925;-76
2021/06/27 04:19:52;;;;;;;;;;;;;;;-144.31;100.00;74279.56;5024997;28;20390;-76
2021/06/27 04:22:18;;;;;;;;;;;;;;;-144.31;100.00;74255.59;5021775;28;19990;-76
2021/06/27 04:24:43;;;;;;;;;;;;;;;-144.31;100.00;74251.59;5016319;28;19918;-76
2021/06/27 04:27:09;;;;;;;;;;;;;;;-144.31;100.00;74243.63;5020183;28;19925;-76
2021/06/27 04:29:37;;;;;;;;;;;;;;;-144.31;100.00;74241.63;5026414;28;20395;-76
2021/06/27 04:32:05;;;;;;;;;;;;;;;-144.31;100.00;74239.63;5020025;28;20287;-76
2021/06/27 04:34:31;;;;;;;;;;;;;;;-144.31;100.00;74225.66;5018435;28;19979;-77
2021/06/27 04:36:57;;;;;;;;;;;;;;;-144.31;100.00;74221.66;5021759;28;20024;-77
2021/06/27 04:39:22;;;;;;;;;;;;;;;-144.31;100.00;74203.69;5023864;28;20008;-77
2021/06/27 04:41:50;;;;;;;;;;;;;;;-144.31;100.00;74185.72;5016618;28;19921;-77
2021/06/27 04:44:15;;;;;;;;;;;;;;;-144.31;100.00;74165.75;5023512;28;19921;-76
2021/06/27 04:46:41;;;;;;;;;;;;;;;-144.31;100.00;74151.78;5021630;28;19948;-77
2021/06/27 04:49:07;;;;;;;;;;;;;;;-144.31;100.00;74149.78;5026182;28;19917;-77
2021/06/27 04:51:32;;;;;;;;;;;;;;;-144.31;100.00;74117.81;5026482;28;19921;-77
2021/06/27 04:53:58;;;;;;;;;;;;;;;-144.31;100.00;74079.88;5049834;28;19917;-76
2021/06/27 04:56:23;;;;;;;;;;;;;;;-144.31;100.00;74049.94;5032542;28;19922;-76
2021/06/27 04:58:49;;;;;;;;;;;;;;;-144.31;100.00;74031.97;5024602;28;20401;-76
2021/06/27 05:01:14;;;;;;;;;;;;;;;-144.31;100.00;74012.00;5040134;28;20442;-76
2021/06/27 05:03:40;;;;;;;;;;;;;;;-144.31;100.00;73994.03;5030371;28;20333;-75
2021/06/27 05:06:05;;;;;;;;;;;;;;;-144.31;100.00;73972.06;5020057;28;20013;-77
2021/06/27 05:08:30;;;;;;;;;;;;;;;-144.31;100.00;73938.13;5023871;28;19921;-76
2021/06/27 05:10:58;;;;;;;;;;;;;;;-144.31;100.00;73916.19;5050620;28;20327;-76
2021/06/27 05:13:26;;;;;;;;;;;;;;;-144.31;100.00;73914.19;5023555;28;20996;-77
2021/06/27 05:15:53;;;;;;;;;;;;;;;-144.31;100.00;73912.19;5024761;28;20290;-76
2021/06/27 05:18:20;;;;;;;;;;;;;;;-144.31;100.00;73910.19;5057186;28;19922;-76
2021/06/27 05:20:46;;;;;;;;;;;;;;;-144.31;100.00;73912.19;5023220;28;19928;-77
2021/06/27 05:23:11;;;;;;;;;;;;;;;-144.31;100.00;73904.19;5035560;28;19918;-76
2021/06/27 05:25:39;;;;;;;;;;;;;;;-144.31;100.00;73892.22;5028566;28;20092;-76
2021/06/27 05:28:04;;;;;;;;;;;;;;;-144.31;100.00;73862.28;5030334;28;19925;-77
2021/06/27 05:30:30;;;;;;;;;;;;;;;-144.31;100.00;73876.25;5022059;28;19925;-77
2021/06/27 05:32:55;;;;;;;;;;;;;;;-144.31;100.00;73868.25;5024565;28;19924;-77
2021/06/27 05:35:20;;;;;;;;;;;;;;;-144.31;100.00;73842.31;5027072;28;19928;-77
2021/06/27 05:37:46;;;;;;;;;;;;;;;-144.31;100.00;73810.38;5045415;28;20341;-77
2021/06/27 05:40:11;;;;;;;;;;;;;;;-144.31;100.00;73756.47;5020870;28;20683;-77
2021/06/27 05:42:39;;;;;;;;;;;;;;;-144.31;100.00;73728.50;5020745;28;19942;-77
2021/06/27 05:45:08;;;;;;;;;;;;;;;-144.31;100.00;73702.56;5021491;28;20371;-77
2021/06/27 05:47:33;;;;;;;;;;;;;;;-144.31;100.00;73724.50;5028561;28;19928;-77
2021/06/27 05:49:59;;;;;;;;;;;;;;;-144.31;100.00;73720.53;5021442;28;19917;-76
2021/06/27 05:52:27;;;;;;;;;;;;;;;-144.31;100.00;73710.53;5024597;28;20575;-77
2021/06/27 05:54:54;;;;;;;;;;;;;;;-144.31;100.00;73700.56;5022918;28;20015;-76
2021/06/27 05:57:22;;;;;;;;;;;;;;;-144.31;100.00;73692.56;5028307;28;19921;-77
2021/06/27 05:59:48;;;;;;;;;;;;;;;-144.31;100.00;73698.56;5051389;28;19964;-77
2021/06/27 06:02:13;;;;;;;;;;;;;;;-144.31;100.00;73686.59;5053809;28;19917;-77
2021/06/27 06:04:39;;;;;;;;;;;;;;;-144.31;100.00;73688.59;5033979;28;20024;-77
2021/06/27 06:07:04;;;;;;;;;;;;;;;-144.31;100.00;73684.59;5024792;28;19979;-77
2021/06/27 06:09:29;;;;;;;;;;;;;;;-144.31;100.00;73684.59;5027423;28;19925;-76
2021/06/27 06:11:55;;;;;;;;;;;;;;;-144.31;100.00;73668.63;5051225;28;19960;-77
2021/06/27 06:14:20;;;;;;;;;;;;;;;-144.31;100.00;73654.66;5025455;28;19948;-76
2021/06/27 06:16:46;;;;;;;;;;;;;;;-144.31;100.00;73628.69;5026482;28;20031;-77
2021/06/27 06:19:11;;;;;;;;;;;;;;;-144.31;100.00;73618.72;5024776;28;19922;-77
2021/06/27 06:21:37;;;;;;;;;;;;;;;-144.31;100.00;73602.75;5020185;28;20394;-77
2021/06/27 06:24:05;;;;;;;;;;;;;;;-144.31;100.00;73580.78;5052131;28;19914;-77
2021/06/27 06:26:31;;;;;;;;;;;;;;;-144.31;100.00;73516.91;5020265;28;19924;-76
2021/06/27 06:28:56;;;;;;;;;;;;;;;-144.31;100.00;73500.94;5051910;28;19975;-77
2021/06/27 06:31:22;;;;;;;;;;;;;;;-144.31;100.00;73478.97;5035521;28;19979;-77
2021/06/27 06:33:50;;;;;;;;;;;;;;;-144.31;100.00;73498.94;5019468;28;20012;-77
2021/06/27 06:36:15;;;;;;;;;;;;;;;-144.31;100.00;73514.91;5020571;28;20396;-77
2021/06/27 06:38:40;;;;;;;;;;;;;;;-144.31;100.00;73518.91;5051028;28;20033;-77
2021/06/27 06:41:06;;;;;;;;;;;;;;;-144.31;100.00;73504.91;5027644;28;19979;-77
2021/06/27 06:43:33;;;;;;;;;;;;;;;-144.31;100.00;73524.88;5033629;28;19925;-77
2021/06/27 06:45:59;;;;;;;;;;;;;;;-144.31;100.00;73486.94;5021468;28;20433;-76
2021/06/27 06:48:24;;;;;;;;;;;;;;;-144.31;100.00;73443.03;5053618;28;20186;-75
2021/06/27 06:50:50;;;;;;;;;;;;;;;-144.31;100.00;73431.06;5026559;28;19925;-76
2021/06/27 06:53:15;;;;;;;;;;;;;;;-144.31;100.00;73375.16;5052905;28;19921;-77
2021/06/27 06:55:43;;;;;;;;;;;;;;;-144.31;100.00;73357.19;5009305;28;19921;-77
2021/06/27 06:58:08;;;;;;;;;;;;;;;-144.31;100.00;73335.25;5025319;28;19921;-77
2021/06/27 07:00:36;;;;;;;;;;;;;;;-144.31;100.00;73325.25;5043909;28;20384;-76
2021/06/27 07:03:04;;;;;;;;;;;;;;;-144.31;100.00;73237.44;5018380;28;19929;-76
2021/06/27 07:05:32;;;;;;;;;;;;;;;-144.31;100.00;73271.34;5052440;28;19944;-76
2021/06/27 07:07:57;;;;;;;;;;;;;;;-144.31;100.00;73225.44;5024291;28;19921;-76
2021/06/27 07:10:22;;;;;;;;;;;;;;;-144.31;100.00;73147.59;5024844;28;19927;-76
2021/06/27 07:12:48;;;;;;;;;;;;;;;-144.31;100.00;73125.63;5026138;28;19925;-77
2021/06/27 07:15:16;;;;;;;;;;;;;;;-144.31;100.00;73203.50;5022611;28;19917;-76
2021/06/27 07:17:42;;;;;;;;;;;;;;;-144.31;100.00;73183.53;5035425;28;19936;-77
2021/06/27 07:20:10;;;;;;;;;;;;;;;-144.31;100.00;73175.53;5021863;28;19917;-76
2021/06/27 07:22:35;;;;;;;;;;;;;;;-144.31;100.00;73103.69;5019496;28;19921;-76
2021/06/27 07:25:01;;;;;;;;;;;;;;;-144.31;100.00;73089.72;5042243;28;19918;-77
2021/06/27 07:27:26;;;;;;;;;;;;;;;-144.31;100.00;73125.63;5020374;28;19987;-77
2021/06/27 07:29:52;;;;;;;;;;;;;;;-144.31;100.00;73177.53;5041962;28;20342;-77
2021/06/27 07:32:17;;;;;;;;;;;;;;;-144.31;100.00;73131.63;5027573;28;19947;-76
2021/06/27 07:34:42;;;;;;;;;;;;;;;-144.31;100.00;73093.69;5020508;28;20283;-76
2021/06/27 07:37:10;;;;;;;;;;;;;;;-144.31;100.00;73013.88;5040783;28;19917;-77
2021/06/27 07:39:35;;;;;;;;;;;;;;;-144.31;100.00;72983.91;5024443;28;19941;-76
2021/06/27 07:42:01;;;;;;;;;;;;;;;-144.31;100.00;72953.97;5044149;28;19925;-77
2021/06/27 07:44:26;;;;;;;;;;;;;;;-144.31;100.00;72934.03;5013244;28;19921;-77
2021/06/27 07:46:52;;;;;;;;;;;;;;;-144.31;100.00;72882.13;5024963;28;19921;-76
2021/06/27 07:49:19;;;;;;;;;;;;;;;-144.31;100.00;72906.06;5038090;28;19960;-77
2021/06/27 07:51:45;;;;;;;;;;;;;;;-144.31;100.00;72846.19;5025053;28;19956;-76
2021/06/27 07:54:10;;;;;;;;;;;;;;;-144.31;100.00;72832.22;5023863;28;19925;-76
2021/06/27 07:56:35;;;;;;;;;;;;;;;-144.31;100.00;72876.13;5034602;28;19917;-77
2021/06/27 07:59:01;;;;;;;;;;;;;;;-144.31;100.00;73003.88;5052835;28;19917;-77
2021/06/27 08:01:28;;;;;;;;;;;;;;;-144.31;100.00;73073.75;5021988;28;19917;-77
2021/06/27 08:03:54;;;;;;;;;;;;;;;-144.31;100.00;73073.75;5027130;28;19928;-77
2021/06/27 08:06:21;;;;;;;;;;;;;;;-144.31;100.00;73023.84;5009039;28;19921;-77
2021/06/27 08:08:47;;;;;;;;;;;;;;;-144.31;100.00;73033.81;5014060;28;19985;-77
2021/06/27 08:11:14;;;;;;;;;;;;;;;-144.31;100.00;72999.88;5024582;28;19968;-76
2021/06/27 08:13:40;;;;;;;;;;;;;;;-144.31;100.00;72963.97;5038643;28;19921;-77
2021/06/27 08:16:05;;;;;;;;;;;;;;;-144.31;100.00;72953.97;5023505;28;20253;-77
2021/06/27 08:18:31;;;;;;;;;;;;;;;-144.31;100.00;72888.13;5020707;28;19925;-77
2021/06/27 08:20:56;;;;;;;;;;;;;;;-144.31;100.00;72948.00;5029202;28;19928;-77
2021/06/27 08:23:24;;;;;;;;;;;;;;;-144.31;100.00;72866.16;5025845;28;19921;-76
2021/06/27 08:25:49;;;;;;;;;;;;;;;-144.31;100.00;72804.28;5027910;28;19917;-77
2021/06/27 08:28:15;;;;;;;;;;;;;;;-144.31;100.00;72824.25;5027115;28;20016;-76
2021/06/27 08:30:40;;;;;;;;;;;;;;;-144.31;100.00;72822.25;5029690;28;19972;-73
2021/06/27 08:33:05;;;;;;;;;;;;;;;-144.31;100.00;72848.19;5025725;28;20356;-73
2021/06/27 08:35:31;;;;;;;;;;;;;;;-144.31;100.00;72810.28;5022988;28;19937;-71
2021/06/27 08:37:57;;;;;;;;;;;;;;;-144.31;100.00;72796.31;5019690;28;19948;-72
2021/06/27 08:40:23;;;;;;;;;;;;;;;-144.31;100.00;72668.56;5017423;28;20026;-71
2021/06/27 08:42:49;;;;;;;;;;;;;;;-144.31;100.00;72710.47;5039706;28;20607;-72
2021/06/27 08:45:16;;;;;;;;;;;;;;;-144.31;100.00;72696.50;5017747;28;19956;-72
2021/06/27 08:47:42;;;;;;;;;;;;;;;-144.31;100.00;72744.41;5024788;28;19921;-74
2021/06/27 08:50:09;;;;;;;;;;;;;;;-144.31;100.00;72934.03;5018287;28;19917;-72
2021/06/27 08:52:34;;;;;;;;;;;;;;;-144.31;100.00;72786.31;5018266;28;19921;-73
2021/06/27 08:55:03;;;;;;;;;;;;;;;-144.31;100.00;72722.44;5017491;28;20406;-72
2021/06/27 08:57:29;;;;;;;;;;;;;;;-144.31;100.00;72698.50;5016399;28;20631;-73
2021/06/27 08:59:59;;;;;;;;;;;;;;;-144.31;100.00;72816.25;5018659;28;19979;-71
2021/06/27 09:02:24;;;;;;;;;;;;;;;-144.31;100.00;72782.31;5019210;28;20403;-71
2021/06/27 09:04:50;;;;;;;;;;;;;;;-144.31;100.00;72702.50;5020410;28;20300;-75
2021/06/27 09:07:34;;;;;;;;;;;;;;;-144.31;100.00;72784.31;5035885;28;19925;-71
2021/06/27 09:10:09;;;;;;;;;;;;;;;-144.31;100.00;72718.47;5018903;28;19976;-71
2021/06/27 09:12:48;;;;;;;;;;;;;;;-144.31;100.00;72660.56;5033518;28;19960;-75
2021/06/27 09:15:32;;;;;;;;;;;;;;;-144.31;100.00;72716.47;5015807;28;19921;-70
2021/06/27 09:17:58;;;;;;;;;;;;;;;-144.31;100.00;72772.34;5039482;28;20414;-71
2021/06/27 09:20:25;;;;;;;;;;;;;;;-144.31;100.00;72818.25;5022802;28;19989;-71
2021/06/27 09:22:51;;;;;;;;;;;;;;;-144.31;100.00;72794.31;5022765;28;19917;-72
2021/06/27 09:25:16;;;;;;;;;;;;;;;-144.31;100.00;72746.41;5026017;28;19913;-71
2021/06/27 09:27:42;;;;;;;;;;;;;;;-144.31;100.00;72676.53;5023011;28;19921;-71
2021/06/27 09:30:20;;;;;;;;;;;;;;;-144.31;100.00;72598.72;5020357;28;20007;-72
2021/06/27 09:32:51;;;;;;;;;;;;;;;-144.31;100.00;72582.75;5015803;28;20390;-70
2021/06/27 09:35:35;;;;;;;;;;;;;;;-144.31;100.00;72552.81;5048224;28;19918;-71
2021/06/27 09:38:19;;;;;;;;;;;;;;;-144.31;100.00;72488.94;5016537;28;19925;-75
2021/06/27 09:40:44;;;;;;;;;;;;;;;-144.31;100.00;72514.88;5020149;28;19921;-72
2021/06/27 09:43:10;;;;;;;;;;;;;;;-144.31;100.00;72538.84;5019591;28;19925;-77
2021/06/27 09:46:14;;;;;;;;;;;;;;;-144.31;100.00;72530.84;5014748;28;20379;-71
2021/06/27 09:48:51;;;;;;;;;;;;;;;-144.31;100.00;72674.56;5019244;28;20620;-73
2021/06/27 09:51:17;;;;;;;;;;;;;;;-144.31;100.00;72470.97;5023449;28;20023;-70
2021/06/27 09:53:45;;;;;;;;;;;;;;;-144.31;100.00;72542.81;5022415;28;20027;-71
2021/06/27 09:56:11;;;;;;;;;;;;;;;-144.31;100.00;72604.69;5022473;28;19975;-71
2021/06/27 09:58:39;;;;;;;;;;;;;;;-144.31;100.00;72578.75;5020164;28;20023;-72
2021/06/27 10:01:18;;;;;;;;;;;;;;;-144.31;100.00;72572.75;5002521;28;19933;-72
2021/06/27 10:03:50;;;;;;;;;;;;;;;-144.31;100.00;72608.69;5018832;28;19983;-76
2021/06/27 10:06:16;;;;;;;;;;;;;;;-144.31;100.00;72562.78;5035907;28;19917;-72
2021/06/27 10:08:41;;;;;;;;;;;;;;;-144.31;100.00;72606.69;5020921;28;19952;-72
2021/06/27 10:11:07;;;;;;;;;;;;;;;-144.31;100.00;72490.94;5021959;28;19925;-71
2021/06/27 10:13:32;;;;;;;;;;;;;;;-144.31;100.00;72387.16;5020416;28;20318;-71
2021/06/27 10:15:58;;;;;;;;;;;;;;;-144.31;100.00;72504.91;5022357;28;19931;-72
2021/06/27 10:18:23;;;;;;;;;;;;;;;-144.31;100.00;72534.84;5024205;28;20021;-71
2021/06/27 10:20:49;;;;;;;;;;;;;;;-144.31;100.00;72562.78;5003581;28;19925;-71
2021/06/27 10:23:14;;;;;;;;;;;;;;;-144.31;100.00;72343.25;5026620;28;19921;-71
2021/06/27 10:25:40;;;;;;;;;;;;;;;-144.31;100.00;72223.50;5022762;28;20044;-71
2021/06/27 10:28:05;;;;;;;;;;;;;;;-144.31;100.00;72141.69;5021057;28;19929;-71
2021/06/27 10:30:34;;;;;;;;;;;;;;;-144.31;100.00;72215.53;5021391;28;19947;-71
2021/06/27 10:32:59;;;;;;;;;;;;;;;-144.31;100.00;72431.06;5034817;28;20366;-72
2021/06/27 10:35:25;;;;;;;;;;;;;;;-144.31;100.00;72251.44;5022189;28;20016;-75
2021/06/27 10:37:52;;;;;;;;;;;;;;;-144.31;100.00;72197.56;5020155;28;19928;-75
2021/06/27 10:40:19;;;;;;;;;;;;;;;-144.31;100.00;72125.72;5033110;28;19928;-72
2021/06/27 10:42:47;;;;;;;;;;;;;;;-144.31;100.00;72135.69;5016620;28;20044;-75
2021/06/27 10:45:12;;;;;;;;;;;;;;;-144.31;100.00;72119.72;5017921;28;19924;-73
2021/06/27 10:47:37;;;;;;;;;;;;;;;-144.31;100.00;72125.72;5015932;28;19925;-72
2021/06/27 10:50:04;;;;;;;;;;;;;;;-144.31;100.00;71990.03;5033708;28;20409;-73
2021/06/27 10:52:50;;;;;;;;;;;;;;;-144.31;100.00;72029.94;5039691;28;19918;-72
2021/06/27 10:55:18;;;;;;;;;;;;;;;-144.31;100.00;72105.75;5015377;28;19948;-72
2021/06/27 10:58:10;;;;;;;;;;;;;;;-144.31;100.00;72421.09;5019991;28;19921;-71
2021/06/27 11:00:54;;;;;;;;;;;;;;;-144.31;100.00;72195.56;5019214;28;20020;-71
2021/06/27 11:03:26;;;;;;;;;;;;;;;-144.31;100.00;72347.25;5019522;28;20020;-70
2021/06/27 11:05:56;;;;;;;;;;;;;;;-144.31;100.00;72271.41;5020632;28;19926;-71
2021/06/27 11:08:48;;;;;;;;;;;;;;;-144.31;100.00;72381.16;5026390;28;19955;-71
2021/06/27 11:11:19;;;;;;;;;;;;;;;-144.31;100.00;72435.06;5018754;28;19952;-71
2021/06/27 11:14:04;;;;;;;;;;;;;;;-144.31;100.00;72423.06;5018962;28;19921;-71
2021/06/27 11:16:32;;;;;;;;;;;;;;;-144.31;100.00;72391.16;5043641;28;20393;-71
2021/06/27 11:18:57;;;;;;;;;;;;;;;-144.31;99.60;72137.69;5042238;28;19996;-71
2021/06/27 11:21:24;;;;;;;;;;;;;;;-144.31;92.49;72155.66;5036771;28;20302;-70
2021/06/27 11:23:51;;;;;;;;;;;;;;;-144.31;94.63;72037.91;5037770;28;19921;-72
2021/06/27 11:26:35;;;;;;;;;;;;;;;-144.31;93.62;72121.72;5036559;28;19917;-71
2021/06/27 11:29:01;;;;;;;;;;;;;;;-144.31;86.99;71880.28;5034995;28;20395;-71
2021/06/27 11:31:28;;;;;;;;;;;;;;;-144.31;84.97;71716.66;5052822;28;19925;-71
2021/06/27 11:34:12;;;;;;;;;;;;;;;-144.31;90.85;71834.38;5035671;28;20342;-71
2021/06/27 11:36:40;;;;;;;;;;;;;;;-144.31;91.38;72097.78;5035258;28;19927;-73
2021/06/27 11:39:05;;;;;;;;;;;;;;;-144.31;82.38;71708.66;5036577;28;19921;-74
2021/06/27 11:41:36;;;;;;;;;;;;;;;-144.31;91.89;72000.00;5033990;28;19925;-71
2021/06/27 11:44:02;;;;;;;;;;;;;;;-144.31;84.75;71838.38;5037061;28;20067;-72
2021/06/27 11:46:29;;;;;;;;;;;;;;;-144.31;84.24;71746.56;5034434;28;19917;-72
2021/06/27 11:48:56;;;;;;;;;;;;;;;-144.31;89.40;72089.81;5036380;28;19983;-71
2021/06/27 11:51:32;;;;;;;;;;;;;;;-144.31;88.21;72015.97;5040839;28;20496;-72
2021/06/27 11:53:58;;;;;;;;;;;;;;;-144.31;83.89;72000.00;5034440;28;19925;-72
2021/06/27 11:56:23;;;;;;;;;;;;;;;-144.31;78.77;71606.91;5035879;28;19982;-72
2021/06/27 11:58:48;;;;;;;;;;;;;;;-144.31;78.97;71898.22;5038256;28;19925;-73
2021/06/27 12:01:14;;;;;;;;;;;;;;;-144.31;85.78;72015.97;5040023;28;19960;-73
2021/06/27 12:03:46;;;;;;;;;;;;;;;-144.31;84.75;71830.38;5039377;28;20453;-72
2021/06/27 12:06:12;;;;;;;;;;;;;;;-144.31;91.23;72021.94;5033937;28;20490;-71
2021/06/27 12:08:41;;;;;;;;;;;;;;;-144.31;83.96;71748.56;5061651;28;19983;-71
2021/06/27 12:11:06;;;;;;;;;;;;;;;-144.31;82.53;71836.38;5034132;28;19921;-71
2021/06/27 12:13:34;;;;;;;;;;;;;;;-144.31;81.69;71752.56;5069499;28;20002;-72
2021/06/27 12:16:00;;;;;;;;;;;;;;;-144.31;73.63;71487.19;5039660;28;19960;-72
2021/06/27 12:18:29;;;;;;;;;;;;;;;-144.31;78.73;71778.50;5034265;28;20347;-72
2021/06/27 12:20:56;;;;;;;;;;;;;;;-144.31;70.66;71527.09;5038605;28;19932;-73